Time;durP1;ratioP1;P1;durP2;ratioP2;P2;SDS_P1;SDS_P2;PMS_P1;PMS_P2;Temp;Humidity;BMP_temperature;BMP_pressure;BME280_temperature;BME280_humidity;BME280_pressure;Samples;Min_cycle;Max_cycle;Signal;HPM_P1;HPM_P2
2020/12/31 00:00:19;;;;;;;1.05;0.68;;;20.50;41.60;;;;;;5021818;28;20038;-44
2020/12/31 00:02:45;;;;;;;1.02;0.40;;;20.50;41.60;;;;;;5023492;28;20390;-46
2020/12/31 00:05:10;;;;;;;1.00;0.63;;;20.50;41.60;;;;;;5036871;28;20394;-45
2020/12/31 00:07:36;;;;;;;1.45;0.40;;;20.50;41.60;;;;;;5034750;28;20025;-46
2020/12/31 00:10:02;;;;;;;1.75;0.70;;;20.50;41.70;;;;;;5028053;28;20025;-45
2020/12/31 00:12:28;;;;;;;1.00;0.40;;;20.50;41.70;;;;;;5028148;28;20026;-45
2020/12/31 00:14:53;;;;;;;0.73;0.45;;;20.40;41.70;;;;;;5034655;28;20032;-46
2020/12/31 00:17:19;;;;;;;0.90;0.32;;;20.40;41.70;;;;;;5026930;28;20041;-44
2020/12/31 00:19:45;;;;;;;1.00;0.40;;;20.40;41.80;;;;;;5030298;28;20052;-47
2020/12/31 00:22:10;;;;;;;1.00;0.60;;;20.40;41.70;;;;;;5030685;28;20155;-48
2020/12/31 00:24:36;;;;;;;1.00;0.45;;;20.40;41.80;;;;;;5013390;28;20026;-47
2020/12/31 00:27:02;;;;;;;0.73;0.25;;;20.40;41.80;;;;;;5031076;28;20499;-47
2020/12/31 00:29:28;;;;;;;0.82;0.40;;;20.30;41.70;;;;;;5013205;28;20017;-45
2020/12/31 00:31:53;;;;;;;1.15;0.68;;;20.30;41.70;;;;;;5031461;28;20639;-44
2020/12/31 00:34:19;;;;;;;1.00;0.40;;;20.30;41.70;;;;;;5030642;28;20029;-47
2020/12/31 00:36:47;;;;;;;1.45;0.30;;;20.30;41.90;;;;;;5036657;28;20021;-46
2020/12/31 00:39:12;;;;;;;1.33;0.40;;;20.30;41.80;;;;;;5030743;28;20494;-46
2020/12/31 00:41:38;;;;;;;0.98;0.40;;;20.30;41.70;;;;;;5030640;28;20033;-47
2020/12/31 00:44:03;;;;;;;0.55;0.30;;;20.30;41.80;;;;;;5031783;28;20053;-46
2020/12/31 00:46:29;;;;;;;0.93;0.52;;;20.20;41.70;;;;;;5034905;28;20062;-47
2020/12/31 00:48:54;;;;;;;1.35;0.35;;;20.20;41.70;;;;;;5030883;28;20029;-45
2020/12/31 00:51:20;;;;;;;1.75;0.55;;;20.20;41.80;;;;;;5030767;28;20034;-44
2020/12/31 00:53:45;;;;;;;0.75;0.40;;;20.20;41.80;;;;;;5030647;28;20040;-42
2020/12/31 00:56:11;;;;;;;0.90;0.20;;;20.20;41.80;;;;;;5030104;28;20059;-46
2020/12/31 00:58:37;;;;;;;1.27;0.40;;;20.20;41.80;;;;;;5021403;28;20044;-44
2020/12/31 01:01:02;;;;;;;0.77;0.50;;;20.20;41.80;;;;;;5031874;28;20034;-46
2020/12/31 01:03:28;;;;;;;0.80;0.43;;;20.10;41.80;;;;;;5029939;28;20080;-44
2020/12/31 01:05:53;;;;;;;3.00;0.50;;;20.10;41.80;;;;;;5030158;28;20134;-46
2020/12/31 01:08:19;;;;;;;0.90;0.40;;;20.10;41.80;;;;;;5029714;28;20044;-44
2020/12/31 01:10:45;;;;;;;1.00;0.50;;;20.10;41.80;;;;;;5030148;28;20036;-45
2020/12/31 01:13:10;;;;;;;0.82;0.32;;;20.10;42.00;;;;;;5030148;28;20105;-45
2020/12/31 01:15:36;;;;;;;0.65;0.30;;;20.10;41.80;;;;;;5032085;28;20056;-47
2020/12/31 01:18:02;;;;;;;1.08;0.38;;;20.00;41.80;;;;;;5037841;28;20175;-41
2020/12/31 01:20:28;;;;;;;1.50;0.47;;;20.10;41.90;;;;;;5029865;28;20037;-44
2020/12/31 01:22:54;;;;;;;0.82;0.40;;;20.00;41.80;;;;;;5030499;28;20427;-44
2020/12/31 01:25:19;;;;;;;1.00;0.30;;;20.00;41.80;;;;;;5029573;28;20103;-46
2020/12/31 01:27:45;;;;;;;1.25;0.30;;;20.00;41.80;;;;;;5030390;28;20029;-42
2020/12/31 01:30:11;;;;;;;0.98;0.30;;;20.00;41.70;;;;;;5028836;28;20030;-45
2020/12/31 01:32:36;;;;;;;0.82;0.40;;;20.00;41.80;;;;;;5030783;28;20461;-45
2020/12/31 01:35:02;;;;;;;0.70;0.20;;;20.00;41.80;;;;;;5028959;28;20029;-45
2020/12/31 01:37:28;;;;;;;1.00;0.30;;;20.00;41.80;;;;;;5030124;28;20061;-44
2020/12/31 01:39:54;;;;;;;0.93;0.40;;;20.00;41.90;;;;;;5011990;28;20065;-43
2020/12/31 01:42:19;;;;;;;1.40;0.40;;;20.00;41.80;;;;;;5029450;28;20161;-44
2020/12/31 01:44:45;;;;;;;0.90;0.30;;;20.00;41.90;;;;;;5034687;28;20068;-43
2020/12/31 01:47:13;;;;;;;0.55;0.30;;;19.90;41.80;;;;;;5029795;28;20029;-46
2020/12/31 01:49:41;;;;;;;1.02;0.25;;;19.90;41.80;;;;;;5038335;28;20029;-45
2020/12/31 01:52:08;;;;;;;0.70;0.20;;;19.90;41.80;;;;;;5047319;28;20401;-44
2020/12/31 01:54:34;;;;;;;0.77;0.20;;;19.90;41.80;;;;;;5029820;28;20042;-42
2020/12/31 01:57:01;;;;;;;0.88;0.30;;;19.90;41.80;;;;;;5035579;28;20073;-45
2020/12/31 01:59:27;;;;;;;1.90;0.47;;;19.90;41.90;;;;;;5024552;28;20048;-44
2020/12/31 02:01:53;;;;;;;0.70;0.30;;;19.90;41.80;;;;;;5022160;28;20037;-47
2020/12/31 02:04:19;;;;;;;1.02;0.30;;;19.80;41.80;;;;;;5031369;28;20105;-43
2020/12/31 02:06:46;;;;;;;1.10;0.30;;;19.80;41.80;;;;;;5029687;28;20036;-43
2020/12/31 02:09:11;;;;;;;1.30;0.30;;;19.90;41.80;;;;;;5026869;28;20051;-45
2020/12/31 02:11:38;;;;;;;2.28;0.20;;;19.80;41.80;;;;;;5037990;28;20037;-44
2020/12/31 02:14:04;;;;;;;0.63;0.20;;;19.80;41.90;;;;;;5013933;28;20516;-42
2020/12/31 02:16:40;;;;;;;1.42;0.40;;;19.80;41.80;;;;;;5029171;28;20036;-45
2020/12/31 02:19:12;;;;;;;1.88;0.22;;;19.70;41.80;;;;;;5028952;28;20041;-45
2020/12/31 02:21:51;;;;;;;1.00;0.35;;;19.80;41.90;;;;;;5039074;28;20069;-43
2020/12/31 02:24:18;;;;;;;0.50;0.20;;;19.80;41.90;;;;;;5024204;28;20384;-46
2020/12/31 02:26:45;;;;;;;0.70;0.20;;;19.70;41.80;;;;;;5029997;28;20116;-45
2020/12/31 02:29:13;;;;;;;0.73;0.30;;;19.80;41.90;;;;;;5028164;28;20111;-45
2020/12/31 02:31:40;;;;;;;0.73;0.30;;;19.70;41.90;;;;;;5032817;28;20026;-44
2020/12/31 02:34:06;;;;;;;0.40;0.20;;;19.70;41.90;;;;;;5028317;28;20482;-43
2020/12/31 02:36:34;;;;;;;0.57;0.30;;;19.70;41.90;;;;;;5012184;28;20025;-44
2020/12/31 02:39:05;;;;;;;1.85;0.20;;;19.70;41.90;;;;;;5029031;28;20505;-46
2020/12/31 02:41:31;;;;;;;0.65;0.20;;;19.70;41.80;;;;;;5027478;28;20083;-41
2020/12/31 02:43:56;;;;;;;0.65;0.20;;;19.70;41.90;;;;;;5015039;28;20030;-44
2020/12/31 02:46:22;;;;;;;0.65;0.20;;;19.70;41.90;;;;;;5028262;28;20494;-45
2020/12/31 02:48:50;;;;;;;0.75;0.20;;;19.70;41.90;;;;;;5027724;28;20026;-45
2020/12/31 02:51:17;;;;;;;1.30;0.15;;;19.60;41.90;;;;;;4992247;28;20360;-44
2020/12/31 02:53:42;;;;;;;0.40;0.20;;;19.60;41.90;;;;;;5004647;28;20474;-46
2020/12/31 02:56:12;;;;;;;1.00;0.20;;;19.60;41.90;;;;;;5010668;28;20037;-43
2020/12/31 02:58:39;;;;;;;0.65;0.20;;;19.70;41.90;;;;;;5028008;28;20029;-45
2020/12/31 03:01:06;;;;;;;0.85;0.25;;;19.60;41.90;;;;;;5028571;28;20044;-45
2020/12/31 03:03:32;;;;;;;0.65;0.30;;;19.60;41.90;;;;;;5027688;28;20033;-45
2020/12/31 03:05:57;;;;;;;0.55;0.20;;;19.60;41.90;;;;;;5028353;28;20129;-45
2020/12/31 03:08:23;;;;;;;0.77;0.28;;;19.60;41.90;;;;;;5028175;28;20112;-44
2020/12/31 03:10:50;;;;;;;0.75;0.30;;;19.60;41.90;;;;;;5010320;28;20465;-43
2020/12/31 03:13:17;;;;;;;0.77;0.30;;;19.60;41.90;;;;;;5027575;28;20025;-43
2020/12/31 03:15:42;;;;;;;0.95;0.20;;;19.60;42.00;;;;;;5043656;28;20115;-46
2020/12/31 03:18:08;;;;;;;0.82;0.20;;;19.50;42.00;;;;;;5027982;28;20104;-46
2020/12/31 03:20:34;;;;;;;0.50;0.20;;;19.50;42.00;;;;;;5041220;22;20057;-49
2020/12/31 03:23:00;;;;;;;0.70;0.30;;;19.50;41.90;;;;;;5048205;28;20036;-49
2020/12/31 03:25:26;;;;;;;0.30;0.10;;;19.50;41.90;;;;;;5050359;28;20504;-48
2020/12/31 03:27:51;;;;;;;1.02;0.20;;;19.50;41.90;;;;;;5048829;28;20025;-49
2020/12/31 03:30:17;;;;;;;1.40;0.20;;;19.60;41.70;;;;;;5050572;28;20033;-48
2020/12/31 03:32:42;;;;;;;0.70;0.20;;;19.60;41.70;;;;;;5032288;28;20025;-49
2020/12/31 03:35:08;;;;;;;0.95;0.40;;;19.60;41.70;;;;;;5023537;28;20072;-49
2020/12/31 03:37:33;;;;;;;1.50;0.20;;;19.60;41.60;;;;;;5035987;28;20669;-48
2020/12/31 03:39:59;;;;;;;0.52;0.30;;;19.60;41.60;;;;;;5030411;28;20052;-49
2020/12/31 03:42:25;;;;;;;0.63;0.22;;;19.60;41.60;;;;;;5034285;28;20534;-48
2020/12/31 03:44:50;;;;;;;0.60;0.30;;;19.50;41.70;;;;;;5039731;28;20064;-48
2020/12/31 03:47:16;;;;;;;0.50;0.30;;;19.50;41.70;;;;;;5048085;28;20025;-49
2020/12/31 03:49:41;;;;;;;0.95;0.30;;;19.50;41.80;;;;;;5041475;28;20052;-49
2020/12/31 03:52:07;;;;;;;0.75;0.20;;;19.50;41.80;;;;;;5041610;28;20039;-49
2020/12/31 03:54:32;;;;;;;0.50;0.20;;;19.50;41.90;;;;;;5026449;28;20089;-48
2020/12/31 03:56:58;;;;;;;0.35;0.15;;;19.40;41.80;;;;;;5025391;28;20517;-48
2020/12/31 03:59:24;;;;;;;0.60;0.20;;;19.40;41.80;;;;;;5026379;28;20063;-49
2020/12/31 04:01:49;;;;;;;0.80;0.30;;;19.40;41.80;;;;;;5038135;28;20095;-49
2020/12/31 04:04:15;;;;;;;0.32;0.10;;;19.40;41.80;;;;;;5030516;28;20083;-48
2020/12/31 04:06:40;;;;;;;0.28;0.17;;;19.40;41.80;;;;;;5034569;28;20191;-49
2020/12/31 04:09:06;;;;;;;0.70;0.20;;;19.40;41.80;;;;;;5023538;28;20053;-49
2020/12/31 04:11:31;;;;;;;0.30;0.20;;;19.40;41.80;;;;;;5025708;28;20451;-48
2020/12/31 04:13:57;;;;;;;0.47;0.20;;;19.40;41.80;;;;;;5047216;28;20075;-48
2020/12/31 04:16:22;;;;;;;0.65;0.20;;;19.40;41.90;;;;;;5036910;28;20208;-49
2020/12/31 04:18:48;;;;;;;0.50;0.20;;;19.40;41.90;;;;;;5033309;28;20034;-49
2020/12/31 04:21:13;;;;;;;0.50;0.10;;;19.40;41.80;;;;;;5036136;28;20040;-49
2020/12/31 04:23:39;;;;;;;0.52;0.20;;;19.40;41.80;;;;;;5026955;28;20026;-49
2020/12/31 04:26:05;;;;;;;0.60;0.10;;;19.30;41.80;;;;;;5017286;28;20065;-49
2020/12/31 04:28:30;;;;;;;0.70;0.20;;;19.30;41.80;;;;;;5032930;28;20703;-49
2020/12/31 04:30:56;;;;;;;1.02;0.20;;;19.30;41.80;;;;;;5033779;28;20474;-49
2020/12/31 04:33:22;;;;;;;0.50;0.20;;;19.30;41.80;;;;;;5047049;28;20044;-49
2020/12/31 04:35:47;;;;;;;0.60;0.20;;;19.30;41.80;;;;;;5039724;28;20033;-49
2020/12/31 04:38:13;;;;;;;0.38;0.15;;;19.30;41.80;;;;;;5046885;28;20056;-49
2020/12/31 04:40:43;;;;;;;0.75;0.35;;;19.30;41.80;;;;;;5031851;28;20025;-50
2020/12/31 04:43:09;;;;;;;0.80;0.28;;;19.30;41.80;;;;;;5044157;28;20042;-49
2020/12/31 04:45:38;;;;;;;0.70;0.30;;;19.30;41.80;;;;;;5036385;28;20570;-48
2020/12/31 04:48:36;;;;;;;0.50;0.20;;;19.30;41.90;;;;;;5025020;28;20033;-49
2020/12/31 04:51:06;;;;;;;0.50;0.20;;;19.30;41.80;;;;;;5020609;28;20026;-49
2020/12/31 04:53:32;;;;;;;0.30;0.10;;;19.30;41.80;;;;;;5037011;28;20032;-49
2020/12/31 04:56:01;;;;;;;0.40;0.10;;;19.30;41.90;;;;;;5026222;28;20494;-48
2020/12/31 04:58:26;;;;;;;0.50;0.17;;;19.30;41.90;;;;;;5030203;28;20055;-48
2020/12/31 05:00:52;;;;;;;0.40;0.20;;;19.20;41.80;;;;;;5053783;28;20061;-49
2020/12/31 05:03:18;;;;;;;0.50;0.10;;;19.30;41.90;;;;;;5051265;28;20041;-49
2020/12/31 05:05:45;;;;;;;0.50;0.15;;;19.20;41.80;;;;;;5032749;28;20041;-49
2020/12/31 05:08:11;;;;;;;0.52;0.17;;;19.20;41.80;;;;;;5043450;28;20040;-48
2020/12/31 05:10:36;;;;;;;0.65;0.15;;;19.20;41.90;;;;;;5032526;28;20030;-49
2020/12/31 05:13:06;;;;;;;0.90;0.10;;;19.20;41.80;;;;;;5035377;28;20546;-49
2020/12/31 05:15:40;;;;;;;0.70;0.20;;;19.20;41.80;;;;;;5034093;28;20297;-49
2020/12/31 05:18:20;;;;;;;0.30;0.10;;;19.20;41.90;;;;;;5031501;28;20042;-50
2020/12/31 05:20:51;;;;;;;0.50;0.10;;;19.20;41.80;;;;;;5025678;28;20037;-49
2020/12/31 05:23:22;;;;;;;0.55;0.20;;;19.20;41.90;;;;;;5025917;28;20046;-49
2020/12/31 05:25:48;;;;;;;0.30;0.10;;;19.20;41.90;;;;;;5032973;28;20032;-48
2020/12/31 05:28:27;;;;;;;0.60;0.10;;;19.20;41.90;;;;;;5034367;28;20029;-49
2020/12/31 05:30:55;;;;;;;0.68;0.10;;;19.20;41.90;;;;;;5047827;28;20040;-49
2020/12/31 05:33:33;;;;;;;0.52;0.10;;;19.20;42.00;;;;;;5032903;28;20034;-49
2020/12/31 05:36:17;;;;;;;0.50;0.10;;;19.20;41.90;;;;;;5049426;28;20060;-48
2020/12/31 05:38:45;;;;;;;0.30;0.10;;;19.10;41.90;;;;;;5001375;28;20030;-48
2020/12/31 05:41:12;;;;;;;0.40;0.10;;;19.10;41.90;;;;;;5010814;28;20744;-49
2020/12/31 05:43:40;;;;;;;0.57;0.20;;;19.10;41.90;;;;;;5030010;28;20065;-48
2020/12/31 05:46:14;;;;;;;0.40;0.10;;;19.10;41.90;;;;;;5048305;28;20041;-47
2020/12/31 05:48:39;;;;;;;0.40;0.15;;;19.10;41.90;;;;;;5025776;28;20037;-49
2020/12/31 05:51:23;;;;;;;0.40;0.10;;;19.10;41.90;;;;;;5043934;28;20041;-49
2020/12/31 05:53:49;;;;;;;0.60;0.10;;;19.10;42.00;;;;;;5035788;28;20036;-49
2020/12/31 05:56:17;;;;;;;0.52;0.10;;;19.10;42.00;;;;;;5028268;28;20021;-48
2020/12/31 05:58:48;;;;;;;0.77;0.20;;;19.10;42.00;;;;;;5012658;28;20487;-49
2020/12/31 06:01:15;;;;;;;0.45;0.10;;;19.10;42.00;;;;;;5033288;28;20037;-49
2020/12/31 06:03:50;;;;;;;0.32;0.10;;;19.10;41.90;;;;;;5038934;28;20150;-49
2020/12/31 06:06:18;;;;;;;0.70;0.10;;;19.10;41.90;;;;;;5035121;28;20029;-49
2020/12/31 06:09:03;;;;;;;0.30;0.10;;;19.10;42.00;;;;;;5037088;28;20040;-49
2020/12/31 06:11:34;;;;;;;0.38;0.17;;;19.10;42.00;;;;;;5025731;28;20041;-49
2020/12/31 06:14:03;;;;;;;0.25;0.10;;;19.10;41.90;;;;;;5042942;28;20108;-49
2020/12/31 06:16:35;;;;;;;0.68;0.20;;;19.00;41.90;;;;;;5027624;28;20034;-49
2020/12/31 06:19:02;;;;;;;0.30;0.10;;;19.10;42.00;;;;;;5031542;28;20454;-49
2020/12/31 06:21:41;;;;;;;0.57;0.10;;;19.10;42.00;;;;;;5033400;28;20032;-47
2020/12/31 06:24:12;;;;;;;0.30;0.10;;;19.10;42.00;;;;;;5023698;28;20580;-49
2020/12/31 06:26:40;;;;;;;0.22;0.10;;;19.20;41.90;;;;;;5032459;28;20162;-49
2020/12/31 06:29:07;;;;;;;0.28;0.10;;;19.30;41.60;;;;;;5029518;28;20388;-49
2020/12/31 06:31:32;;;;;;;0.20;0.05;;;19.40;41.40;;;;;;5032968;28;20036;-49
2020/12/31 06:33:58;;;;;;;0.30;0.10;;;19.60;41.20;;;;;;5043404;28;20025;-48
2020/12/31 06:36:32;;;;;;;0.22;0.10;;;19.70;41.00;;;;;;5024136;28;20073;-49
2020/12/31 06:38:58;;;;;;;0.30;0.10;;;19.80;41.00;;;;;;5023445;28;20057;-49
2020/12/31 06:41:42;;;;;;;0.50;0.10;;;19.80;40.80;;;;;;5030394;28;20107;-49
2020/12/31 06:44:12;;;;;;;0.40;0.10;;;19.90;40.80;;;;;;5024442;28;20095;-50
2020/12/31 06:46:49;;;;;;;0.20;0.10;;;19.90;40.70;;;;;;5039166;28;20017;-49
2020/12/31 06:49:15;;;;;;;0.10;0.00;;;20.00;40.70;;;;;;5030406;28;20029;-49
2020/12/31 06:51:42;;;;;;;0.30;0.13;;;20.00;40.60;;;;;;5029074;28;20539;-50
2020/12/31 06:54:08;;;;;;;0.40;0.10;;;20.00;40.60;;;;;;5027912;28;20033;-49
2020/12/31 06:56:46;;;;;;;0.38;0.10;;;20.10;40.60;;;;;;5047440;28;20454;-49
2020/12/31 06:59:32;;;;;;;0.20;0.10;;;20.10;40.60;;;;;;5024170;28;20451;-50
2020/12/31 07:02:02;;;;;;;0.28;0.10;;;20.20;40.60;;;;;;5035280;28;20166;-49
2020/12/31 07:04:39;;;;;;;0.30;0.10;;;20.20;40.50;;;;;;5040230;28;20029;-49
2020/12/31 07:07:19;;;;;;;0.25;0.10;;;20.20;40.50;;;;;;5046367;28;20037;-49
2020/12/31 07:10:02;;;;;;;0.50;0.30;;;20.30;40.40;;;;;;5027759;28;20029;-49
2020/12/31 07:12:34;;;;;;;0.25;0.10;;;20.40;40.30;;;;;;5034352;28;20021;-49
2020/12/31 07:15:00;;;;;;;0.20;0.08;;;20.40;40.30;;;;;;5030451;28;20038;-49
2020/12/31 07:17:38;;;;;;;0.30;0.10;;;20.40;40.20;;;;;;5012520;28;20084;-50
2020/12/31 07:20:07;;;;;;;0.68;0.10;;;20.40;40.20;;;;;;5032293;28;20047;-50
2020/12/31 07:22:36;;;;;;;0.20;0.10;;;20.50;40.20;;;;;;5048831;28;20025;-50
2020/12/31 07:25:05;;;;;;;0.43;0.10;;;20.50;40.10;;;;;;5031062;28;20033;-49
2020/12/31 07:27:32;;;;;;;0.13;0.08;;;20.60;40.10;;;;;;5016165;28;20025;-50
2020/12/31 07:30:21;;;;;;;0.22;0.08;;;20.60;40.00;;;;;;5022794;28;20026;-49
2020/12/31 07:32:51;;;;;;;0.20;0.10;;;20.60;40.00;;;;;;5040059;28;20108;-49
2020/12/31 07:35:32;;;;;;;0.20;0.00;;;20.70;40.00;;;;;;5050598;28;20544;-49
2020/12/31 07:38:08;;;;;;;0.65;0.10;;;20.60;40.10;;;;;;5011234;28;20380;-49
2020/12/31 07:40:45;;;;;;;0.65;0.10;;;20.60;40.20;;;;;;5031128;28;20354;-49
2020/12/31 07:43:22;;;;;;;0.30;0.10;;;20.50;40.40;;;;;;5034830;28;20490;-50
2020/12/31 07:45:50;;;;;;;0.40;0.10;;;20.50;40.70;;;;;;5020192;28;20398;-49
2020/12/31 07:48:16;;;;;;;1.55;0.10;;;20.50;41.20;;;;;;5017428;28;20025;-49
2020/12/31 07:50:42;;;;;;;2.10;0.20;;;20.40;40.60;;;;;;5038566;28;20035;-50
2020/12/31 07:53:12;;;;;;;0.60;0.10;;;20.40;40.70;;;;;;5037453;28;20033;-49
2020/12/31 07:55:46;;;;;;;1.13;0.10;;;20.40;40.70;;;;;;5027869;28;20034;-50
2020/12/31 07:58:12;;;;;;;0.30;0.10;;;20.40;40.80;;;;;;5011255;28;20129;-50
2020/12/31 08:00:38;;;;;;;0.25;0.10;;;20.40;40.80;;;;;;5028563;28;20029;-51
2020/12/31 08:03:08;;;;;;;0.30;0.10;;;20.30;40.80;;;;;;5035004;28;20026;-50
2020/12/31 08:05:34;;;;;;;0.70;0.10;;;20.30;41.20;;;;;;5034677;28;20028;-49
2020/12/31 08:07:59;;;;;;;0.93;0.10;;;20.20;40.70;;;;;;5031523;28;20025;-50
2020/12/31 08:10:25;;;;;;;0.50;0.20;;;20.20;40.50;;;;;;5030618;28;20021;-50
2020/12/31 08:13:02;;;;;;;0.50;0.20;;;20.20;40.50;;;;;;5044978;28;20447;-49
2020/12/31 08:15:28;;;;;;;0.38;0.10;;;20.20;40.60;;;;;;5046201;28;20037;-49
2020/12/31 08:17:56;;;;;;;0.35;0.10;;;20.20;40.70;;;;;;5027499;28;20437;-49
2020/12/31 08:20:45;;;;;;;0.30;0.10;;;20.20;40.70;;;;;;5027342;28;20053;-49
2020/12/31 08:23:18;;;;;;;0.40;0.10;;;20.10;40.70;;;;;;5030874;28;20127;-50
2020/12/31 08:25:47;;;;;;;0.50;0.10;;;20.10;40.70;;;;;;5048175;28;20263;-50
2020/12/31 08:28:20;;;;;;;0.40;0.10;;;20.00;40.70;;;;;;5029030;28;20032;-50
2020/12/31 08:30:46;;;;;;;0.60;0.10;;;20.00;40.80;;;;;;5007812;28;20387;-50
2020/12/31 08:33:12;;;;;;;1.25;0.20;;;20.00;40.80;;;;;;5048552;28;20052;-51
2020/12/31 08:35:42;;;;;;;0.55;0.10;;;19.90;40.80;;;;;;5039921;28;20041;-50
2020/12/31 08:38:11;;;;;;;0.85;0.10;;;20.00;40.80;;;;;;5019407;28;20038;-51
2020/12/31 08:40:45;;;;;;;0.50;0.20;;;20.10;40.60;;;;;;5032771;28;20563;-50
2020/12/31 08:43:21;;;;;;;0.38;0.10;;;20.10;40.50;;;;;;5034680;28;20105;-50
2020/12/31 08:45:49;;;;;;;0.85;0.20;;;20.20;40.30;;;;;;5017846;28;20022;-51
2020/12/31 08:48:25;;;;;;;0.30;0.10;;;20.30;40.30;;;;;;5040433;28;20498;-51
2020/12/31 08:51:09;;;;;;;0.30;0.10;;;20.30;40.10;;;;;;5032890;28;20033;-50
2020/12/31 08:53:49;;;;;;;0.28;0.10;;;20.40;40.10;;;;;;5035524;28;20071;-50
2020/12/31 08:56:15;;;;;;;0.40;0.10;;;20.40;39.90;;;;;;5034184;28;20129;-51
2020/12/31 08:58:41;;;;;;;0.22;0.10;;;20.50;39.80;;;;;;5032983;28;20029;-49
2020/12/31 09:01:07;;;;;;;0.80;0.10;;;20.60;39.70;;;;;;5032383;28;20104;-48
2020/12/31 09:03:32;;;;;;;0.30;0.10;;;20.60;39.70;;;;;;5040053;28;20037;-48
2020/12/31 09:06:04;;;;;;;0.40;0.20;;;20.60;39.60;;;;;;5035859;28;20037;-48
2020/12/31 09:08:30;;;;;;;0.38;0.10;;;20.60;39.60;;;;;;5033842;28;20036;-49
2020/12/31 09:11:05;;;;;;;0.60;0.20;;;20.60;39.60;;;;;;5037775;28;20057;-49
2020/12/31 09:13:39;;;;;;;0.30;0.10;;;20.60;39.50;;;;;;5040688;28;20037;-49
2020/12/31 09:16:14;;;;;;;0.70;0.20;;;20.60;39.50;;;;;;5042261;28;20493;-49
2020/12/31 09:18:40;;;;;;;0.70;0.20;;;20.70;39.60;;;;;;5033817;28;20390;-49
2020/12/31 09:21:07;;;;;;;0.50;0.20;;;20.60;39.50;;;;;;5060420;22;20136;-48
2020/12/31 09:23:33;;;;;;;0.30;0.10;;;20.70;39.60;;;;;;5048354;28;20036;-45
2020/12/31 09:25:58;;;;;;;0.40;0.20;;;20.70;39.50;;;;;;5027551;28;20033;-44
2020/12/31 09:28:27;;;;;;;0.63;0.38;;;20.70;39.50;;;;;;5045323;28;20033;-45
2020/12/31 09:30:54;;;;;;;0.60;0.20;;;20.70;39.50;;;;;;5035836;28;20038;-47
2020/12/31 09:33:21;;;;;;;0.93;0.15;;;20.70;39.60;;;;;;5029898;28;20421;-47
2020/12/31 09:35:47;;;;;;;0.90;0.22;;;20.70;39.60;;;;;;5029996;28;20025;-48
2020/12/31 09:38:15;;;;;;;0.68;0.40;;;20.70;39.70;;;;;;5027991;28;20529;-47
2020/12/31 09:40:40;;;;;;;0.85;0.40;;;20.60;39.60;;;;;;5024083;28;20064;-49
2020/12/31 09:43:06;;;;;;;0.45;0.20;;;20.60;39.70;;;;;;5022047;28;20522;-48
2020/12/31 09:45:32;;;;;;;0.73;0.20;;;20.60;39.70;;;;;;5029883;28;20108;-47
2020/12/31 09:47:59;;;;;;;1.38;0.30;;;20.60;39.70;;;;;;5030147;28;20096;-48
2020/12/31 09:50:25;;;;;;;0.85;0.25;;;20.50;39.80;;;;;;5028760;28;20414;-49
2020/12/31 09:52:51;;;;;;;1.20;0.20;;;20.50;39.70;;;;;;5029095;28;20025;-47
2020/12/31 09:55:16;;;;;;;0.50;0.20;;;20.50;39.80;;;;;;5029943;28;20037;-45
2020/12/31 09:57:42;;;;;;;2.33;0.30;;;20.40;39.80;;;;;;5028520;28;20033;-46
2020/12/31 10:00:08;;;;;;;0.70;0.40;;;20.40;39.90;;;;;;5029962;28;20038;-48
2020/12/31 10:02:33;;;;;;;0.50;0.20;;;20.40;39.90;;;;;;5028150;28;20087;-47
2020/12/31 10:04:59;;;;;;;0.73;0.30;;;20.40;39.90;;;;;;5029018;28;20037;-47
2020/12/31 10:07:26;;;;;;;0.60;0.30;;;20.40;40.00;;;;;;5028642;28;20093;-47
2020/12/31 10:09:52;;;;;;;1.65;0.30;;;20.30;40.00;;;;;;5029031;28;20037;-49
2020/12/31 10:12:17;;;;;;;0.63;0.28;;;20.30;40.00;;;;;;5029473;28;20055;-48
2020/12/31 10:14:43;;;;;;;0.47;0.20;;;20.30;40.00;;;;;;5028530;28;20037;-48
2020/12/31 10:17:09;;;;;;;0.70;0.30;;;20.30;40.10;;;;;;4997970;28;20033;-49
2020/12/31 10:19:36;;;;;;;0.80;0.30;;;20.30;40.10;;;;;;5030430;28;20044;-46
2020/12/31 10:22:02;;;;;;;1.10;0.30;;;20.20;40.10;;;;;;5029205;28;20037;-47
2020/12/31 10:24:28;;;;;;;0.80;0.30;;;20.20;40.10;;;;;;5028870;28;20037;-46
2020/12/31 10:26:53;;;;;;;1.02;0.30;;;20.20;40.20;;;;;;5028446;28;20086;-49
2020/12/31 10:29:19;;;;;;;1.00;0.25;;;20.20;40.20;;;;;;5026385;28;20509;-48
2020/12/31 10:31:55;;;;;;;1.08;0.38;;;20.20;40.30;;;;;;5028037;28;20134;-50
2020/12/31 10:34:22;;;;;;;0.80;0.30;;;20.10;40.20;;;;;;5029434;28;20140;-47
2020/12/31 10:36:52;;;;;;;0.93;0.30;;;20.10;40.30;;;;;;5036485;28;20060;-45
2020/12/31 10:39:18;;;;;;;0.70;0.50;;;20.10;40.40;;;;;;5034957;28;20039;-46
2020/12/31 10:41:45;;;;;;;0.90;0.32;;;20.10;40.30;;;;;;5028523;28;20108;-46
2020/12/31 10:44:11;;;;;;;1.10;0.40;;;20.10;40.30;;;;;;5041174;28;20566;-46
2020/12/31 10:46:37;;;;;;;1.80;0.80;;;20.10;40.40;;;;;;5038192;28;20116;-46
2020/12/31 10:49:02;;;;;;;1.25;0.60;;;20.10;40.50;;;;;;5031221;28;20114;-46
2020/12/31 10:51:28;;;;;;;1.25;0.60;;;20.20;40.70;;;;;;5047760;28;20021;-47
2020/12/31 10:53:53;;;;;;;2.42;0.35;;;20.30;40.70;;;;;;5044927;28;20479;-47
2020/12/31 10:56:20;;;;;;;1.50;0.88;;;20.40;40.40;;;;;;5027735;28;20037;-48
2020/12/31 10:58:46;;;;;;;2.50;0.88;;;20.50;40.30;;;;;;5043604;28;20394;-48
2020/12/31 11:01:14;;;;;;;1.33;0.65;;;20.60;40.20;;;;;;5028923;28;20030;-46
2020/12/31 11:03:41;;;;;;;1.30;0.80;;;20.60;40.00;;;;;;5041948;28;20043;-47
2020/12/31 11:06:07;;;;;;;1.55;0.70;;;20.70;40.00;;;;;;5031518;28;20029;-49
2020/12/31 11:08:32;;;;;;;1.73;1.05;;;20.70;39.90;;;;;;5028118;28;20087;-46
2020/12/31 11:10:58;;;;;;;2.33;1.40;;;20.70;39.80;;;;;;5028233;28;20110;-44
2020/12/31 11:13:23;;;;;;;1.98;1.27;;;20.80;39.80;;;;;;5028336;28;20433;-46
2020/12/31 11:15:49;;;;;;;2.22;1.45;;;20.80;39.80;;;;;;5028437;28;20038;-45
2020/12/31 11:18:14;;;;;;;1.40;1.20;;;20.80;39.80;;;;;;5025989;28;20149;-47
2020/12/31 11:20:40;;;;;;;2.58;1.08;;;20.80;39.80;;;;;;5043070;28;20093;-46
2020/12/31 11:23:05;;;;;;;2.03;1.42;;;20.80;39.80;;;;;;5015802;28;20041;-47
2020/12/31 11:25:31;;;;;;;3.42;1.83;;;20.80;39.80;;;;;;5028063;28;20056;-47
2020/12/31 11:27:56;;;;;;;1.60;1.10;;;20.90;39.80;;;;;;5012115;28;20419;-46
2020/12/31 11:30:22;;;;;;;3.03;1.30;;;20.90;39.70;;;;;;5025506;28;20021;-47
2020/12/31 11:32:48;;;;;;;2.30;1.77;;;21.00;39.70;;;;;;5029435;28;20060;-47
2020/12/31 11:35:14;;;;;;;2.08;1.63;;;21.00;40.00;;;;;;5028486;28;20041;-47
2020/12/31 11:37:39;;;;;;;1.75;1.15;;;21.10;39.50;;;;;;5029087;28;20041;-46
2020/12/31 11:40:05;;;;;;;2.75;2.22;;;21.10;39.50;;;;;;5027952;28;20379;-46
2020/12/31 11:42:32;;;;;;;3.22;2.20;;;21.00;39.50;;;;;;5027736;28;20038;-48
2020/12/31 11:44:59;;;;;;;2.10;1.70;;;21.10;39.60;;;;;;5028614;28;20108;-45
2020/12/31 11:47:25;;;;;;;2.85;2.25;;;21.00;39.70;;;;;;5030400;28;20039;-47
2020/12/31 11:49:50;;;;;;;2.85;2.53;;;21.00;39.70;;;;;;5012081;28;20128;-43
2020/12/31 11:52:16;;;;;;;3.38;2.55;;;21.00;39.80;;;;;;5015539;28;20530;-44
2020/12/31 11:54:42;;;;;;;2.47;2.28;;;21.00;39.80;;;;;;5032529;28;20659;-45
2020/12/31 11:57:07;;;;;;;3.65;2.55;;;20.90;39.90;;;;;;5023403;28;20033;-45
2020/12/31 11:59:33;;;;;;;2.92;2.17;;;20.90;40.00;;;;;;5020432;28;20045;-41
2020/12/31 12:01:58;;;;;;;4.85;3.40;;;20.90;40.00;;;;;;5047760;28;20067;-46
2020/12/31 12:04:24;;;;;;;4.75;2.85;;;20.80;40.00;;;;;;5035928;28;20045;-49
2020/12/31 12:06:54;;;;;;;3.85;3.25;;;20.70;40.00;;;;;;5033115;28;20083;-48
2020/12/31 12:09:20;;;;;;;3.72;2.85;;;20.80;40.10;;;;;;5033721;28;20026;-46
2020/12/31 12:11:46;;;;;;;3.58;2.55;;;20.70;40.10;;;;;;5029589;28;20169;-48
2020/12/31 12:14:12;;;;;;;3.38;2.30;;;20.70;40.20;;;;;;5043938;28;20032;-46
2020/12/31 12:16:40;;;;;;;4.45;3.00;;;20.70;40.30;;;;;;5032852;28;20033;-47
2020/12/31 12:19:05;;;;;;;3.33;2.38;;;20.60;40.30;;;;;;5025506;28;20498;-44
2020/12/31 12:21:31;;;;;;;2.97;2.70;;;20.60;40.40;;;;;;5036158;28;20039;-46
2020/12/31 12:23:56;;;;;;;3.70;3.20;;;20.60;40.50;;;;;;5038435;28;20410;-46
2020/12/31 12:26:22;;;;;;;3.58;2.58;;;20.60;40.50;;;;;;5030447;28;20531;-48
2020/12/31 12:28:48;;;;;;;2.95;2.25;;;20.50;40.50;;;;;;5020015;28;20048;-45
2020/12/31 12:31:13;;;;;;;4.35;3.22;;;20.50;40.60;;;;;;5045537;28;20390;-50
2020/12/31 12:33:39;;;;;;;2.58;2.17;;;20.50;40.60;;;;;;5031303;28;20495;-45
2020/12/31 12:36:05;;;;;;;3.03;2.50;;;20.50;40.70;;;;;;5032008;28;20033;-44
2020/12/31 12:38:30;;;;;;;2.20;2.00;;;20.50;40.70;;;;;;5032945;28;20028;-46
2020/12/31 12:40:56;;;;;;;2.95;2.28;;;20.40;40.70;;;;;;5013823;28;20087;-46
2020/12/31 12:43:21;;;;;;;2.63;2.42;;;20.40;40.80;;;;;;5030111;28;20052;-46
2020/12/31 12:45:47;;;;;;;2.85;2.25;;;20.40;40.80;;;;;;5048012;28;20059;-47
2020/12/31 12:48:12;;;;;;;3.20;1.95;;;20.40;40.80;;;;;;5032088;28;20490;-48
2020/12/31 12:50:38;;;;;;;3.65;2.30;;;20.40;40.90;;;;;;5030699;28;20513;-47